Wetterdaten: Woche 18.04.16 - 24.04.16 (KW16)
Datum Zeit Temp. Aussen Temp. o. S. +5cm Feuchte Auss BlattFeu 1 Luftdruck Regen Sonnenschein Regendauer Solar Windben Empfang
18.04.2016 00:00 4,2 C 2,5 C 2,0 C 82 % 0 lf 1018,4 hPa 0,0 l/m 0,00 h 0,00 h 0 W/m 1,7 km/h (1 Bft) 91,91 %
18.04.2016 01:00 3,4 C 1,8 C 1,4 C 84 % 1 lf 1018,6 hPa 0,0 l/m 0,00 h 0,00 h 0 W/m 1,0 km/h (0 Bft) 96,37 %
18.04.2016 02:00 2,6 C 1,3 C 1,1 C 85 % 2 lf 1018,8 hPa 0,0 l/m 0,00 h 0,00 h 0 W/m 0,0 km/h (0 Bft) 98,72 %
18.04.2016 03:00 2,1 C 1,4 C 0,6 C 88 % 5 lf 1019,2 hPa 0,0 l/m 0,00 h 0,00 h 0 W/m 0,0 km/h (0 Bft) 95,37 %
18.04.2016 04:00 1,6 C 0,9 C 0,0 C 90 % 14 lf 1019,4 hPa 0,0 l/m 0,00 h 0,00 h 0 W/m 0,0 km/h (0 Bft) 95,66 %
18.04.2016 05:00 1,1 C 0,3 C 0,0 C 91 % 15 lf 1019,5 hPa 0,0 l/m 0,00 h 0,00 h 0 W/m 3,7 km/h (1 Bft) 96,01 %
18.04.2016 06:00 0,8 C 0,4 C -0,0 C 92 % 15 lf 1019,7 hPa 0,0 l/m 0,00 h 0,00 h 11 W/m 6,2 km/h (2 Bft) 96,65 %
18.04.2016 07:00 1,0 C 1,3 C 0,7 C 93 % 15 lf 1020,2 hPa 0,0 l/m 0,93 h 0,00 h 99 W/m 6,7 km/h (2 Bft) 96,30 %
18.04.2016 08:00 2,7 C 4,0 C 2,9 C 95 % 15 lf 1020,6 hPa 0,0 l/m 1,00 h 0,00 h 276 W/m 9,3 km/h (2 Bft) 96,25 %
18.04.2016 09:00 5,9 C 15,1 C 7,7 C 95 % 5 lf 1020,9 hPa 0,0 l/m 1,00 h 0,00 h 465 W/m 12,8 km/h (3 Bft) 95,88 %
18.04.2016 10:00 10,1 C 19,0 C 16,2 C 73 % 0 lf 1021,1 hPa 0,0 l/m 1,00 h 0,00 h 615 W/m 19,2 km/h (3 Bft) 96,16 %
18.04.2016 11:00 12,0 C 20,5 C 16,3 C 63 % 0 lf 1021,1 hPa 0,0 l/m 0,97 h 0,00 h 691 W/m 18,7 km/h (3 Bft) 95,65 %
18.04.2016 12:00 13,4 C 21,9 C 18,0 C 56 % 0 lf 1020,9 hPa 0,0 l/m 0,80 h 0,00 h 663 W/m 19,7 km/h (3 Bft) 96,08 %
18.04.2016 13:00 13,9 C 20,2 C 14,2 C 52 % 0 lf 1020,9 hPa 0,0 l/m 0,70 h 0,00 h 683 W/m 20,8 km/h (4 Bft) 97,43 %
18.04.2016 14:00 14,8 C 21,1 C 13,9 C 47 % 0 lf 1020,8 hPa 0,0 l/m 0,83 h 0,00 h 792 W/m 26,7 km/h (4 Bft) 93,74 %
18.04.2016 15:00 14,4 C 18,6 C 13,5 C 48 % 0 lf 1020,6 hPa 0,0 l/m 0,53 h 0,00 h 539 W/m 23,7 km/h (4 Bft) 96,58 %
18.04.2016 16:00 14,3 C 16,7 C 13,3 C 48 % 0 lf 1020,4 hPa 0,0 l/m 0,40 h 0,00 h 356 W/m 24,7 km/h (4 Bft) 97,72 %
18.04.2016 17:00 13,3 C 15,0 C 12,5 C 52 % 0 lf 1020,3 hPa 0,0 l/m 0,60 h 0,00 h 261 W/m 24,0 km/h (4 Bft) 95,59 %
18.04.2016 18:00 12,8 C 13,3 C 11,5 C 55 % 0 lf 1020,4 hPa 0,0 l/m 0,23 h 0,00 h 143 W/m 21,2 km/h (4 Bft) 94,59 %
18.04.2016 19:00 12,0 C 12,1 C 10,5 C 58 % 0 lf 1020,8 hPa 0,0 l/m 0,00 h 0,00 h 42 W/m 19,4 km/h (3 Bft) 98,50 %
18.04.2016 20:00 11,3 C 11,2 C 9,6 C 61 % 0 lf 1021,3 hPa 0,0 l/m 0,00 h 0,00 h 7 W/m 15,9 km/h (3 Bft) 96,08 %
18.04.2016 21:00 10,7 C 10,5 C 9,1 C 65 % 0 lf 1021,9 hPa 0,0 l/m 0,00 h 0,00 h 0 W/m 11,7 km/h (2 Bft) 94,67 %
18.04.2016 22:00 10,3 C 10,0 C 8,9 C 68 % 0 lf 1022,4 hPa 0,0 l/m 0,00 h 0,00 h 0 W/m 12,0 km/h (2 Bft) 96,94 %
18.04.2016 23:00 9,8 C 9,8 C 8,3 C 68 % 0 lf 1022,6 hPa 0,0 l/m 0,00 h 0,00 h 0 W/m 14,2 km/h (3 Bft) 96,80 %
19.04.2016 00:00 9,5 C 9,4 C 8,2 C 70 % 0 lf 1022,8 hPa 0,0 l/m 0,00 h 0,00 h 0 W/m 12,1 km/h (2 Bft) 97,78 %
19.04.2016 01:00 9,2 C 9,2 C 7,8 C 73 % 0 lf 1023,0 hPa 0,0 l/m 0,00 h 0,00 h 0 W/m 12,8 km/h (3 Bft) 96,16 %
19.04.2016 02:00 8,9 C 8,6 C 7,4 C 76 % 0 lf 1023,1 hPa 0,0 l/m 0,00 h 0,00 h 0 W/m 10,4 km/h (2 Bft) 94,52 %
19.04.2016 03:00 8,6 C 8,3 C 7,2 C 78 % 0 lf 1023,2 hPa 0,0 l/m 0,00 h 0,00 h 0 W/m 13,1 km/h (3 Bft) 97,51 %
19.04.2016 04:00 8,4 C 8,3 C 7,2 C 78 % 0 lf 1023,2 hPa 0,0 l/m 0,00 h 0,00 h 0 W/m 14,6 km/h (3 Bft) 97,05 %
19.04.2016 05:00 8,3 C 8,3 C 7,2 C 78 % 0 lf 1023,2 hPa 0,0 l/m 0,00 h 0,03 h 0 W/m 15,5 km/h (3 Bft) 95,51 %
19.04.2016 06:00 8,1 C 8,0 C 6,8 C 80 % 0 lf 1023,4 hPa 0,0 l/m 0,00 h 0,00 h 6 W/m 13,5 km/h (3 Bft) 95,66 %
19.04.2016 07:00 8,0 C 8,3 C 7,1 C 82 % 0 lf 1023,8 hPa 0,0 l/m 0,00 h 0,00 h 39 W/m 14,2 km/h (3 Bft) 97,27 %
19.04.2016 08:00 8,6 C 9,7 C 8,4 C 83 % 0 lf 1024,2 hPa 0,0 l/m 0,00 h 0,00 h 116 W/m 15,2 km/h (3 Bft) 96,76 %
19.04.2016 09:00 9,8 C 11,7 C 9,9 C 83 % 0 lf 1024,5 hPa 0,0 l/m 0,30 h 0,00 h 208 W/m 16,4 km/h (3 Bft) 95,56 %
19.04.2016 10:00 11,4 C 15,1 C 12,2 C 79 % 0 lf 1025,0 hPa 0,0 l/m 1,00 h 0,00 h 338 W/m 15,3 km/h (3 Bft) 95,79 %
19.04.2016 11:00 13,4 C 18,9 C 14,9 C 68 % 0 lf 1025,1 hPa 0,0 l/m 0,63 h 0,00 h 427 W/m 15,1 km/h (3 Bft) 96,64 %
19.04.2016 12:00 14,1 C 18,0 C 14,7 C 60 % 0 lf 1025,3 hPa 0,0 l/m 0,27 h 0,00 h 361 W/m 16,1 km/h (3 Bft) 96,25 %
19.04.2016 13:00 14,2 C 17,9 C 14,4 C 59 % 0 lf 1025,5 hPa 0,0 l/m 0,33 h 0,00 h 406 W/m 17,7 km/h (3 Bft) 96,56 %
19.04.2016 14:00 14,5 C 18,2 C 14,0 C 58 % 0 lf 1025,5 hPa 0,0 l/m 0,27 h 0,00 h 417 W/m 19,2 km/h (3 Bft) 95,88 %
19.04.2016 15:00 14,6 C 18,7 C 14,4 C 54 % 0 lf 1025,6 hPa 0,0 l/m 0,40 h 0,00 h 391 W/m 18,5 km/h (3 Bft) 97,98 %
19.04.2016 16:00 15,0 C 17,0 C 13,8 C 54 % 0 lf 1025,6 hPa 0,0 l/m 0,23 h 0,00 h 245 W/m 16,5 km/h (3 Bft) 94,99 %
19.04.2016 17:00 13,5 C 14,2 C 12,2 C 59 % 0 lf 1025,7 hPa 0,0 l/m 0,20 h 0,00 h 161 W/m 16,3 km/h (3 Bft) 95,75 %
19.04.2016 18:00 13,2 C 13,9 C 12,0 C 60 % 0 lf 1025,7 hPa 0,0 l/m 0,20 h 0,00 h 125 W/m 19,8 km/h (3 Bft) 98,18 %
19.04.2016 19:00 12,4 C 12,3 C 10,7 C 62 % 0 lf 1025,9 hPa 0,0 l/m 0,27 h 0,00 h 66 W/m 17,0 km/h (3 Bft) 93,31 %
19.04.2016 20:00 10,8 C 10,4 C 9,2 C 66 % 0 lf 1026,6 hPa 0,0 l/m 0,00 h 0,00 h 14 W/m 18,6 km/h (3 Bft) 96,83 %
19.04.2016 21:00 9,6 C 8,8 C 7,7 C 67 % 0 lf 1027,7 hPa 0,0 l/m 0,00 h 0,00 h 0 W/m 15,2 km/h (3 Bft) 98,03 %
19.04.2016 22:00 8,1 C 7,2 C 6,3 C 72 % 0 lf 1028,4 hPa 0,0 l/m 0,00 h 0,00 h 0 W/m 12,6 km/h (3 Bft) 94,63 %
19.04.2016 23:00 6,8 C 5,0 C 4,3 C 75 % 0 lf 1028,9 hPa 0,0 l/m 0,00 h 0,00 h 0 W/m 6,0 km/h (2 Bft) 95,69 %
20.04.2016 00:00 5,4 C 3,3 C 2,7 C 79 % 0 lf 1029,3 hPa 0,0 l/m 0,00 h 0,00 h 0 W/m 3,5 km/h (1 Bft) 96,80 %
20.04.2016 01:00 4,2 C 2,2 C 2,0 C 82 % 0 lf 1029,5 hPa 0,0 l/m 0,00 h 0,00 h 0 W/m 3,3 km/h (1 Bft) 96,59 %
20.04.2016 02:00 3,3 C 1,6 C 1,4 C 84 % 1 lf 1029,5 hPa 0,0 l/m 0,00 h 0,00 h 0 W/m 3,1 km/h (1 Bft) 96,94 %
20.04.2016 03:00 2,6 C 1,1 C 1,0 C 85 % 2 lf 1029,7 hPa 0,0 l/m 0,00 h 0,00 h 0 W/m 0,3 km/h (0 Bft) 96,89 %
20.04.2016 04:00 2,1 C 0,5 C 0,6 C 87 % 5 lf 1029,8 hPa 0,0 l/m 0,00 h 0,00 h 0 W/m 0,8 km/h (0 Bft) 96,06 %
20.04.2016 05:00 1,5 C -0,1 C 0,1 C 88 % 14 lf 1029,8 hPa 0,0 l/m 0,00 h 0,00 h 0 W/m 0,6 km/h (0 Bft) 93,75 %
20.04.2016 06:00 1,0 C -0,5 C -0,1 C 89 % 15 lf 1030,1 hPa 0,0 l/m 0,00 h 0,00 h 14 W/m 0,5 km/h (0 Bft) 97,07 %
20.04.2016 07:00 0,9 C 1,0 C 0,6 C 90 % 15 lf 1030,6 hPa 0,0 l/m 1,00 h 0,00 h 100 W/m 0,4 km/h (0 Bft) 97,44 %
20.04.2016 08:00 2,6 C 4,1 C 3,2 C 94 % 14 lf 1031,0 hPa 0,0 l/m 1,00 h 0,00 h 282 W/m 4,2 km/h (1 Bft) 94,84 %
20.04.2016 09:00 6,1 C 15,7 C 8,2 C 94 % 0 lf 1031,3 hPa 0,0 l/m 0,98 h 0,00 h 450 W/m 8,5 km/h (2 Bft) 95,71 %
20.04.2016 10:00 10,3 C 18,0 C 16,0 C 70 % 0 lf 1031,2 hPa 0,0 l/m 0,93 h 0,00 h 635 W/m 12,4 km/h (3 Bft) 97,55 %
20.04.2016 11:00 12,2 C 20,2 C 17,0 C 60 % 0 lf 1031,2 hPa 0,0 l/m 0,97 h 0,00 h 709 W/m 14,6 km/h (3 Bft) 95,47 %
20.04.2016 12:00 13,3 C 22,5 C 17,4 C 57 % 0 lf 1030,6 hPa 0,0 l/m 0,93 h 0,00 h 723 W/m 13,4 km/h (3 Bft) 95,42 %
20.04.2016 13:00 14,2 C 23,5 C 14,2 C 53 % 0 lf 1030,2 hPa 0,0 l/m 1,00 h 0,00 h 825 W/m 13,7 km/h (3 Bft) 98,06 %
20.04.2016 14:00 14,7 C 23,2 C 13,2 C 50 % 0 lf 1029,8 hPa 0,0 l/m 1,00 h 0,00 h 791 W/m 15,6 km/h (3 Bft) 95,54 %
20.04.2016 15:00 15,9 C 23,3 C 13,9 C 47 % 0 lf 1029,4 hPa 0,0 l/m 1,00 h 0,00 h 714 W/m 13,5 km/h (3 Bft) 96,32 %
20.04.2016 16:00 16,3 C 22,5 C 14,1 C 45 % 0 lf 1028,9 hPa 0,0 l/m 1,00 h 0,00 h 596 W/m 15,2 km/h (3 Bft) 97,52 %
20.04.2016 17:00 16,0 C 20,0 C 13,7 C 46 % 0 lf 1028,3 hPa 0,0 l/m 1,00 h 0,00 h 450 W/m 17,6 km/h (3 Bft) 95,72 %
20.04.2016 18:00 15,1 C 15,7 C 13,0 C 49 % 0 lf 1027,8 hPa 0,0 l/m 1,00 h 0,00 h 279 W/m 20,0 km/h (4 Bft) 95,17 %
20.04.2016 19:00 14,0 C 13,9 C 12,2 C 53 % 0 lf 1027,3 hPa 0,0 l/m 0,20 h 0,00 h 65 W/m 17,7 km/h (3 Bft) 97,53 %
20.04.2016 20:00 12,7 C 11,8 C 10,3 C 56 % 0 lf 1027,3 hPa 0,0 l/m 0,00 h 0,00 h 15 W/m 14,2 km/h (3 Bft) 96,11 %
20.04.2016 21:00 11,0 C 9,8 C 8,6 C 61 % 0 lf 1027,1 hPa 0,0 l/m 0,00 h 0,00 h 0 W/m 8,9 km/h (2 Bft) 94,24 %
20.04.2016 22:00 9,6 C 7,8 C 6,4 C 65 % 0 lf 1027,2 hPa 0,0 l/m 0,00 h 0,00 h 0 W/m 6,4 km/h (2 Bft) 98,02 %
20.04.2016 23:00 8,6 C 6,9 C 5,7 C 68 % 0 lf 1027,2 hPa 0,0 l/m 0,00 h 0,00 h 0 W/m 4,4 km/h (1 Bft) 96,21 %
21.04.2016 00:00 7,2 C 5,1 C 4,2 C 72 % 0 lf 1027,1 hPa 0,0 l/m 0,00 h 0,00 h 0 W/m 2,8 km/h (1 Bft) 97,60 %
21.04.2016 01:00 6,1 C 4,7 C 3,9 C 77 % 0 lf 1027,0 hPa 0,0 l/m 0,00 h 0,00 h 0 W/m 6,4 km/h (2 Bft) 94,25 %
21.04.2016 02:00 5,6 C 4,7 C 3,4 C 80 % 0 lf 1026,3 hPa 0,0 l/m 0,00 h 0,00 h 0 W/m 5,7 km/h (1 Bft) 96,50 %
21.04.2016 03:00 4,9 C 3,1 C 2,4 C 81 % 0 lf 1025,7 hPa 0,0 l/m 0,00 h 0,00 h 0 W/m 4,6 km/h (1 Bft) 96,82 %
21.04.2016 04:00 3,9 C 2,5 C 2,0 C 83 % 0 lf 1025,6 hPa 0,0 l/m 0,00 h 0,00 h 0 W/m 3,5 km/h (1 Bft) 95,49 %
21.04.2016 05:00 3,5 C 3,2 C 2,0 C 86 % 0 lf 1025,5 hPa 0,0 l/m 0,00 h 0,00 h 0 W/m 8,7 km/h (2 Bft) 97,17 %
21.04.2016 06:00 3,9 C 3,9 C 2,8 C 88 % 0 lf 1025,2 hPa 0,0 l/m 0,00 h 0,00 h 14 W/m 11,9 km/h (2 Bft) 95,11 %
21.04.2016 07:00 4,4 C 5,1 C 3,8 C 89 % 0 lf 1025,3 hPa 0,0 l/m 1,00 h 0,00 h 118 W/m 11,9 km/h (2 Bft) 93,85 %
21.04.2016 08:00 6,0 C 7,8 C 5,8 C 87 % 0 lf 1025,3 hPa 0,0 l/m 1,00 h 0,00 h 302 W/m 13,8 km/h (3 Bft) 98,57 %
21.04.2016 09:00 9,7 C 18,0 C 10,7 C 75 % 0 lf 1025,1 hPa 0,0 l/m 1,00 h 0,00 h 473 W/m 12,5 km/h (3 Bft) 95,96 %
21.04.2016 10:00 13,7 C 21,5 C 20,1 C 60 % 0 lf 1024,8 hPa 0,0 l/m 1,00 h 0,00 h 623 W/m 14,1 km/h (3 Bft) 94,31 %
21.04.2016 11:00 16,0 C 24,6 C 21,0 C 55 % 0 lf 1024,4 hPa 0,0 l/m 0,93 h 0,00 h 675 W/m 12,8 km/h (3 Bft) 97,51 %
21.04.2016 12:00 18,0 C 25,8 C 22,8 C 48 % 0 lf 1023,6 hPa 0,0 l/m 1,00 h 0,00 h 809 W/m 14,6 km/h (3 Bft) 96,60 %
21.04.2016 13:00 19,3 C 27,7 C 19,0 C 45 % 0 lf 1023,1 hPa 0,0 l/m 1,00 h 0,00 h 834 W/m 14,1 km/h (3 Bft) 95,07 %
21.04.2016 14:00 19,8 C 27,9 C 17,6 C 44 % 0 lf 1022,3 hPa 0,0 l/m 1,00 h 0,00 h 803 W/m 16,0 km/h (3 Bft) 97,51 %
21.04.2016 15:00 20,8 C 28,0 C 20,2 C 41 % 0 lf 1021,3 hPa 0,0 l/m 1,00 h 0,00 h 722 W/m 15,2 km/h (3 Bft) 95,78 %
21.04.2016 16:00 20,5 C 26,5 C 18,2 C 40 % 0 lf 1020,6 hPa 0,0 l/m 0,92 h 0,00 h 590 W/m 17,7 km/h (3 Bft) 95,15 %
21.04.2016 17:00 19,9 C 23,4 C 17,7 C 43 % 0 lf 1019,9 hPa 0,0 l/m 0,92 h 0,00 h 451 W/m 21,2 km/h (4 Bft) 96,79 %
21.04.2016 18:00 19,0 C 19,5 C 17,1 C 46 % 0 lf 1019,3 hPa 0,0 l/m 1,00 h 0,00 h 296 W/m 21,7 km/h (4 Bft) 96,39 %
21.04.2016 19:00 17,5 C 17,1 C 15,3 C 50 % 0 lf 1019,1 hPa 0,0 l/m 0,07 h 0,00 h 61 W/m 15,8 km/h (3 Bft) 95,44 %
21.04.2016 20:00 15,6 C 14,9 C 13,5 C 53 % 0 lf 1019,2 hPa 0,0 l/m 0,00 h 0,00 h 14 W/m 15,5 km/h (3 Bft) 94,69 %
21.04.2016 21:00 13,9 C 13,0 C 11,8 C 57 % 0 lf 1019,7 hPa 0,0 l/m 0,00 h 0,00 h 0 W/m 13,2 km/h (3 Bft) 97,94 %
21.04.2016 22:00 12,7 C 12,2 C 11,0 C 60 % 0 lf 1019,8 hPa 0,0 l/m 0,00 h 0,00 h 0 W/m 16,2 km/h (3 Bft) 94,95 %
21.04.2016 23:00 12,2 C 12,2 C 10,6 C 59 % 0 lf 1020,1 hPa 0,0 l/m 0,00 h 0,00 h 0 W/m 13,0 km/h (3 Bft) 95,37 %
22.04.2016 00:00 12,0 C 11,8 C 10,5 C 59 % 0 lf 1020,3 hPa 0,0 l/m 0,00 h 0,00 h 0 W/m 13,4 km/h (3 Bft) 97,60 %
22.04.2016 01:00 10,8 C 10,7 C 9,3 C 66 % 0 lf 1020,3 hPa 0,0 l/m 0,00 h 0,00 h 0 W/m 18,8 km/h (3 Bft) 96,71 %
22.04.2016 02:00 10,2 C 10,0 C 8,9 C 70 % 0 lf 1020,2 hPa 0,0 l/m 0,00 h 0,00 h 0 W/m 15,1 km/h (3 Bft) 94,38 %
22.04.2016 03:00 9,9 C 9,7 C 8,5 C 71 % 0 lf 1020,2 hPa 0,0 l/m 0,00 h 0,00 h 0 W/m 16,7 km/h (3 Bft) 97,86 %
22.04.2016 04:00 9,3 C 8,9 C 7,8 C 71 % 0 lf 1020,2 hPa 0,0 l/m 0,00 h 0,00 h 0 W/m 10,3 km/h (2 Bft) 95,73 %
22.04.2016 05:00 8,5 C 7,9 C 6,9 C 73 % 0 lf 1020,0 hPa 0,0 l/m 0,00 h 0,00 h 0 W/m 8,0 km/h (2 Bft) 97,15 %
22.04.2016 06:00 7,4 C 7,2 C 6,1 C 79 % 0 lf 1020,0 hPa 0,0 l/m 0,00 h 0,00 h 10 W/m 11,7 km/h (2 Bft) 95,16 %
22.04.2016 07:00 7,0 C 7,5 C 6,1 C 82 % 0 lf 1020,1 hPa 0,0 l/m 0,07 h 0,00 h 68 W/m 13,1 km/h (3 Bft) 95,66 %
22.04.2016 08:00 7,9 C 9,6 C 7,8 C 78 % 0 lf 1020,3 hPa 0,0 l/m 0,97 h 0,00 h 225 W/m 23,1 km/h (4 Bft) 96,22 %
22.04.2016 09:00 9,4 C 12,5 C 10,0 C 72 % 0 lf 1020,3 hPa 0,0 l/m 0,93 h 0,00 h 295 W/m 24,7 km/h (4 Bft) 96,43 %
22.04.2016 10:00 11,9 C 18,3 C 16,3 C 65 % 0 lf 1020,0 hPa 0,0 l/m 1,00 h 0,00 h 544 W/m 20,3 km/h (4 Bft) 94,66 %
22.04.2016 11:00 13,8 C 20,7 C 17,2 C 59 % 0 lf 1019,8 hPa 0,0 l/m 1,00 h 0,00 h 599 W/m 20,7 km/h (4 Bft) 97,72 %
22.04.2016 12:00 15,1 C 22,8 C 18,2 C 56 % 0 lf 1019,2 hPa 0,0 l/m 0,97 h 0,00 h 722 W/m 22,0 km/h (4 Bft) 97,22 %
22.04.2016 13:00 15,7 C 23,2 C 15,9 C 55 % 0 lf 1018,5 hPa 0,0 l/m 1,00 h 0,00 h 751 W/m 19,4 km/h (3 Bft) 93,53 %
22.04.2016 14:00 15,5 C 22,5 C 14,7 C 56 % 0 lf 1018,1 hPa 0,0 l/m 1,00 h 0,00 h 685 W/m 17,8 km/h (3 Bft) 98,31 %
22.04.2016 15:00 15,2 C 19,7 C 14,4 C 56 % 0 lf 1017,5 hPa 0,0 l/m 1,00 h 0,00 h 495 W/m 20,8 km/h (4 Bft) 96,51 %
22.04.2016 16:00 15,0 C 18,6 C 14,1 C 56 % 0 lf 1016,8 hPa 0,0 l/m 1,00 h 0,00 h 474 W/m 22,5 km/h (4 Bft) 93,88 %
22.04.2016 17:00 14,0 C 15,0 C 12,9 C 60 % 0 lf 1016,3 hPa 0,0 l/m 0,03 h 0,00 h 191 W/m 21,7 km/h (4 Bft) 97,15 %
22.04.2016 18:00 13,1 C 13,8 C 12,0 C 62 % 0 lf 1016,0 hPa 0,0 l/m 0,00 h 0,00 h 115 W/m 18,8 km/h (3 Bft) 97,22 %
22.04.2016 19:00 12,4 C 12,5 C 11,1 C 62 % 0 lf 1015,5 hPa 0,0 l/m 0,00 h 0,00 h 50 W/m 16,6 km/h (3 Bft) 93,37 %
22.04.2016 20:00 11,7 C 11,6 C 10,3 C 61 % 0 lf 1015,2 hPa 0,0 l/m 0,00 h 0,00 h 11 W/m 14,3 km/h (3 Bft) 97,94 %
22.04.2016 21:00 11,1 C 10,9 C 9,7 C 62 % 0 lf 1015,0 hPa 0,0 l/m 0,00 h 0,00 h 0 W/m 14,1 km/h (3 Bft) 95,73 %
22.04.2016 22:00 10,6 C 10,6 C 9,4 C 63 % 0 lf 1014,8 hPa 0,0 l/m 0,00 h 0,00 h 0 W/m 14,2 km/h (3 Bft) 96,80 %
22.04.2016 23:00 10,2 C 10,2 C 9,0 C 64 % 0 lf 1014,8 hPa 0,0 l/m 0,00 h 0,00 h 0 W/m 17,1 km/h (3 Bft) 95,73 %
23.04.2016 00:00 9,5 C 9,4 C 8,2 C 65 % 0 lf 1014,8 hPa 0,0 l/m 0,00 h 0,00 h 0 W/m 23,8 km/h (4 Bft) 95,08 %
23.04.2016 01:00 8,7 C 8,6 C 7,5 C 69 % 0 lf 1014,7 hPa 0,0 l/m 0,00 h 0,00 h 0 W/m 22,2 km/h (4 Bft) 96,37 %
23.04.2016 02:00 7,9 C 7,9 C 6,9 C 72 % 0 lf 1014,6 hPa 0,0 l/m 0,00 h 0,00 h 0 W/m 17,8 km/h (3 Bft) 98,79 %
23.04.2016 03:00 7,4 C 7,3 C 6,4 C 74 % 0 lf 1014,3 hPa 0,0 l/m 0,00 h 0,10 h 0 W/m 15,7 km/h (3 Bft) 92,38 %
23.04.2016 04:00 6,9 C 6,8 C 5,6 C 77 % 4 lf 1014,0 hPa 0,0 l/m 0,00 h 0,27 h 0 W/m 15,3 km/h (3 Bft) 98,08 %
23.04.2016 05:00 6,3 C 6,1 C 5,0 C 81 % 12 lf 1013,7 hPa 0,0 l/m 0,00 h 0,60 h 0 W/m 14,4 km/h (3 Bft) 97,06 %
23.04.2016 06:00 5,8 C 5,7 C 3,9 C 83 % 15 lf 1013,7 hPa 0,2 l/m 0,00 h 1,00 h 11 W/m 14,2 km/h (3 Bft) 95,33 %
23.04.2016 07:00 5,6 C 6,2 C 4,2 C 82 % 8 lf 1013,7 hPa 0,0 l/m 0,00 h 0,07 h 51 W/m 13,7 km/h (3 Bft) 96,39 %
23.04.2016 08:00 6,1 C 7,1 C 5,4 C 81 % 0 lf 1013,8 hPa 0,0 l/m 0,00 h 0,00 h 131 W/m 18,5 km/h (3 Bft) 96,62 %
23.04.2016 09:00 6,6 C 9,1 C 6,8 C 78 % 0 lf 1013,7 hPa 0,0 l/m 0,27 h 0,00 h 244 W/m 19,4 km/h (3 Bft) 95,04 %
23.04.2016 10:00 7,7 C 11,2 C 8,5 C 72 % 0 lf 1013,5 hPa 0,0 l/m 0,33 h 0,00 h 305 W/m 22,3 km/h (4 Bft) 97,93 %
23.04.2016 11:00 8,1 C 10,5 C 8,2 C 70 % 0 lf 1013,6 hPa 0,0 l/m 0,23 h 0,00 h 282 W/m 22,4 km/h (4 Bft) 94,65 %
23.04.2016 12:00 8,7 C 13,4 C 10,1 C 65 % 0 lf 1013,5 hPa 0,0 l/m 0,73 h 0,00 h 515 W/m 25,7 km/h (4 Bft) 95,51 %
23.04.2016 13:00 9,7 C 13,5 C 9,7 C 56 % 0 lf 1013,4 hPa 0,0 l/m 0,30 h 0,00 h 429 W/m 25,1 km/h (4 Bft) 97,46 %
23.04.2016 14:00 9,5 C 11,6 C 9,3 C 55 % 0 lf 1013,2 hPa 0,0 l/m 0,03 h 0,00 h 292 W/m 22,4 km/h (4 Bft) 95,28 %
23.04.2016 15:00 9,0 C 10,8 C 8,4 C 59 % 0 lf 1013,3 hPa 0,0 l/m 0,10 h 0,13 h 239 W/m 24,8 km/h (4 Bft) 95,10 %
23.04.2016 16:00 9,6 C 12,1 C 9,3 C 59 % 0 lf 1012,8 hPa 0,0 l/m 0,13 h 0,00 h 276 W/m 24,6 km/h (4 Bft) 98,43 %
23.04.2016 17:00 9,6 C 11,3 C 8,4 C 55 % 0 lf 1012,7 hPa 0,0 l/m 0,23 h 0,03 h 214 W/m 25,9 km/h (4 Bft) 93,83 %
23.04.2016 18:00 8,8 C 9,5 C 7,7 C 57 % 2 lf 1013,0 hPa 0,0 l/m 0,50 h 0,17 h 184 W/m 29,1 km/h (5 Bft) 95,70 %
23.04.2016 19:00 7,7 C 7,7 C 6,3 C 63 % 0 lf 1013,6 hPa 0,0 l/m 0,30 h 0,00 h 76 W/m 29,9 km/h (5 Bft) 97,47 %
23.04.2016 20:00 6,5 C 5,9 C 4,9 C 67 % 0 lf 1014,2 hPa 0,0 l/m 0,00 h 0,00 h 16 W/m 22,2 km/h (4 Bft) 94,73 %
23.04.2016 21:00 5,3 C 4,1 C 3,3 C 71 % 0 lf 1014,7 hPa 0,0 l/m 0,00 h 0,00 h 0 W/m 11,9 km/h (2 Bft) 96,51 %
23.04.2016 22:00 4,2 C 3,0 C 2,2 C 75 % 0 lf 1015,0 hPa 0,0 l/m 0,00 h 0,00 h 0 W/m 9,9 km/h (2 Bft) 96,51 %
23.04.2016 23:00 3,2 C 1,8 C 1,1 C 78 % 0 lf 1015,2 hPa 0,0 l/m 0,00 h 0,00 h 0 W/m 6,7 km/h (2 Bft) 94,80 %
24.04.2016 00:00 2,3 C 1,3 C 0,7 C 81 % 1 lf 1015,4 hPa 0,0 l/m 0,00 h 0,00 h 0 W/m 5,9 km/h (2 Bft) 97,72 %
24.04.2016 01:00 1,7 C 0,9 C 0,3 C 84 % 1 lf 1015,4 hPa 0,0 l/m 0,00 h 0,00 h 0 W/m 7,6 km/h (2 Bft) 97,01 %
24.04.2016 02:00 1,6 C 1,8 C 1,2 C 87 % 0 lf 1014,9 hPa 0,0 l/m 0,00 h 0,00 h 0 W/m 8,8 km/h (2 Bft) 97,29 %
24.04.2016 03:00 2,5 C 2,8 C 2,1 C 89 % 0 lf 1014,5 hPa 0,0 l/m 0,00 h 0,00 h 0 W/m 13,0 km/h (3 Bft) 93,59 %
24.04.2016 04:00 2,5 C 1,9 C 1,2 C 88 % 1 lf 1014,2 hPa 0,0 l/m 0,00 h 0,00 h 0 W/m 10,3 km/h (2 Bft) 96,61 %
24.04.2016 05:00 2,0 C 1,4 C 0,7 C 89 % 2 lf 1014,0 hPa 0,0 l/m 0,00 h 0,00 h 0 W/m 9,4 km/h (2 Bft) 98,79 %
24.04.2016 06:00 1,5 C 1,1 C 0,5 C 90 % 3 lf 1013,8 hPa 0,0 l/m 0,27 h 0,00 h 20 W/m 8,5 km/h (2 Bft) 94,40 %
24.04.2016 07:00 1,8 C 2,8 C 1,5 C 92 % 1 lf 1013,9 hPa 0,0 l/m 0,77 h 0,00 h 108 W/m 12,0 km/h (2 Bft) 97,41 %
24.04.2016 08:00 3,4 C 5,6 C 3,5 C 92 % 0 lf 1014,1 hPa 0,0 l/m 0,67 h 0,00 h 247 W/m 16,4 km/h (3 Bft) 94,87 %
24.04.2016 09:00 5,4 C 10,1 C 5,6 C 81 % 0 lf 1014,0 hPa 0,0 l/m 0,63 h 0,00 h 311 W/m 18,5 km/h (3 Bft) 95,69 %
24.04.2016 10:00 6,3 C 9,7 C 7,2 C 72 % 0 lf 1013,8 hPa 0,0 l/m 0,27 h 0,00 h 276 W/m 17,6 km/h (3 Bft) 97,54 %
24.04.2016 11:00 7,9 C 13,0 C 9,7 C 66 % 0 lf 1013,6 hPa 0,0 l/m 0,43 h 0,00 h 398 W/m 18,3 km/h (3 Bft) 94,86 %
24.04.2016 12:00 9,0 C 14,4 C 11,1 C 58 % 0 lf 1013,3 hPa 0,0 l/m 0,43 h 0,03 h 503 W/m 20,8 km/h (4 Bft) 95,40 %
24.04.2016 13:00 8,0 C 11,1 C 7,2 C 67 % 9 lf 1013,2 hPa 0,0 l/m 0,40 h 0,40 h 410 W/m 26,1 km/h (4 Bft) 98,02 %
24.04.2016 14:00 8,4 C 15,2 C 8,5 C 63 % 0 lf 1012,9 hPa 0,0 l/m 0,87 h 0,00 h 693 W/m 28,7 km/h (4 Bft) 94,42 %
24.04.2016 15:00 9,2 C 13,9 C 9,3 C 58 % 0 lf 1012,5 hPa 0,0 l/m 0,43 h 0,00 h 416 W/m 26,8 km/h (4 Bft) 95,35 %
24.04.2016 16:00 7,3 C 11,3 C 7,0 C 71 % 3 lf 1012,7 hPa 0,0 l/m 0,50 h 0,23 h 383 W/m 28,2 km/h (4 Bft) 98,65 %
24.04.2016 17:00 8,4 C 12,3 C 7,9 C 67 % 0 lf 1012,3 hPa 0,0 l/m 0,67 h 0,03 h 440 W/m 23,6 km/h (4 Bft) 93,20 %
24.04.2016 18:00 6,6 C 7,1 C 5,6 C 68 % 2 lf 1012,5 hPa 0,0 l/m 0,10 h 0,27 h 104 W/m 24,7 km/h (4 Bft) 97,65 %
24.04.2016 19:00 5,9 C 6,0 C 4,3 C 72 % 7 lf 1012,8 hPa 0,0 l/m 0,23 h 0,13 h 69 W/m 13,7 km/h (3 Bft) 96,87 %
24.04.2016 20:00 5,0 C 4,2 C 2,6 C 79 % 15 lf 1013,1 hPa 0,4 l/m 0,00 h 0,37 h 12 W/m 13,1 km/h (3 Bft) 94,97 %
24.04.2016 21:00 3,6 C 2,2 C 1,1 C 84 % 15 lf 1013,7 hPa 0,0 l/m 0,00 h 0,00 h 0 W/m 10,4 km/h (2 Bft) 95,58 %
24.04.2016 22:00 2,7 C 1,7 C 0,9 C 88 % 15 lf 1013,8 hPa 0,0 l/m 0,00 h 0,13 h 0 W/m 11,7 km/h (2 Bft) 97,25 %
24.04.2016 23:00 1,7 C 0,7 C 0,0 C 88 % 15 lf 1013,8 hPa 0,2 l/m 0,00 h 0,00 h 0 W/m 8,6 km/h (2 Bft) 94,45 %
Min-Datum _ 18.04.16 18.04.16 18.04.16 21.04.16 18.04.16 24.04.16 - - - - 18.04.16 18.04.16
_ Min-Zeit 06:06 05:42 06:06 15:12 00:00 17:26 - - - - 00:30 00:02
Minimum _ 0,8 C -0,6 C -0,6 C 39 % 0 lf 1012,1 hPa - - - - 0,0 km/h (0 Bft) 5,56 %
Max-Datum _ 21.04.16 21.04.16 21.04.16 18.04.16 18.04.16 20.04.16 24.04.16 18.04.16 19.04.16 23.04.16 24.04.16 18.04.16
_ Max-Zeit 15:50 13:56 15:32 08:48 04:24 09:02 20:28 07:04 05:44 12:46 16:12 01:50
Maximum _ 21,1 C 30,6 C 25,6 C 96 % 15 lf 1031,3 hPa 0,4 l/m 0,03 h 0,03 h 1127 W/m 48,1 km/h
W-NW (6 Bft)
100,00 %
Durchschnitt _ 9,1 C 10,9 C 8,5 C 69 % 2 lf 1020,5 hPa #0,8 l/m #55:45 h #4:00 h 336 W/m 14,7 km/h (3 Bft) 96,15 %
© 2016 W. Hausmann